Time;durP1;ratioP1;P1;durP2;ratioP2;P2;SDS_P1;SDS_P2;PMS_P1;PMS_P2;Temp;Humidity;BMP_temperature;BMP_pressure;BME280_temperature;BME280_humidity;BME280_pressure;Samples;Min_cycle;Max_cycle;Signal;HPM_P1;HPM_P2
2021/12/08 00:01:08;;;;;;;14.68;4.68;;;4.60;91.60;;;;;;5033716;28;20069;-80
2021/12/08 00:03:34;;;;;;;12.13;3.70;;;4.60;91.60;;;;;;5051204;28;20092;-79
2021/12/08 00:06:01;;;;;;;13.55;3.53;;;4.50;91.60;;;;;;5022658;28;20563;-80
2021/12/08 00:08:29;;;;;;;10.77;3.45;;;4.60;91.70;;;;;;5049151;28;20524;-79
2021/12/08 00:13:24;;;;;;;12.10;4.50;;;4.60;91.70;;;;;;5051839;28;20466;-80
2021/12/08 00:15:53;;;;;;;7.82;3.42;;;4.60;91.70;;;;;;5049107;28;20162;-79
2021/12/08 00:18:23;;;;;;;13.60;3.63;;;4.50;91.70;;;;;;5046578;28;20579;-80
2021/12/08 00:20:51;;;;;;;14.77;4.88;;;4.60;91.70;;;;;;5051834;28;20147;-80
2021/12/08 00:23:17;;;;;;;14.05;4.18;;;4.60;91.70;;;;;;5037031;28;20071;-81
2021/12/08 00:25:44;;;;;;;11.27;4.70;;;4.60;91.80;;;;;;5034513;28;20170;-80
2021/12/08 00:28:11;;;;;;;14.27;4.72;;;4.50;91.80;;;;;;5029529;28;20105;-80
2021/12/08 00:30:41;;;;;;;14.35;5.05;;;4.60;91.80;;;;;;5038622;28;20084;-81
2021/12/08 00:33:07;;;;;;;10.88;4.35;;;4.50;91.90;;;;;;5048630;28;20088;-81
2021/12/08 00:35:34;;;;;;;14.32;4.78;;;4.60;91.90;;;;;;5035452;28;20078;-82
2021/12/08 00:38:00;;;;;;;15.93;5.40;;;4.50;91.90;;;;;;5049735;28;20158;-82
2021/12/08 00:40:28;;;;;;;15.30;5.13;;;4.50;91.90;;;;;;5052601;28;20110;-83
2021/12/08 00:42:54;;;;;;;14.25;4.97;;;4.60;91.90;;;;;;5032663;28;20077;-82
2021/12/08 00:45:21;;;;;;;19.23;5.07;;;4.60;92.00;;;;;;5044034;28;20579;-84
2021/12/08 00:47:48;;;;;;;23.63;5.40;;;4.60;92.00;;;;;;5049140;28;20073;-84
2021/12/08 00:50:15;;;;;;;12.38;5.45;;;4.60;92.00;;;;;;5054336;28;20422;-84
2021/12/08 00:52:41;;;;;;;16.23;4.63;;;4.60;92.10;;;;;;5031038;28;20435;-86
2021/12/08 00:55:11;;;;;;;13.70;5.15;;;4.60;92.10;;;;;;5020352;28;20073;-86
2021/12/08 00:57:38;;;;;;;14.35;5.05;;;4.60;92.10;;;;;;5032701;28;20073;-87
2021/12/08 01:00:12;;;;;;;27.40;6.45;;;4.60;92.10;;;;;;5038198;28;20072;-89
2021/12/08 01:02:39;;;;;;;17.23;5.05;;;4.60;92.20;;;;;;5053153;28;20073;-92
2021/12/08 01:05:14;;;;;;;16.10;5.43;;;4.60;92.20;;;;;;5032407;28;20157;-88
2021/12/08 01:07:41;;;;;;;18.88;5.93;;;4.60;92.30;;;;;;5047142;28;20063;-90
2021/12/08 01:10:14;;;;;;;13.40;5.35;;;4.60;92.20;;;;;;5049791;28;20074;-88
2021/12/08 01:12:41;;;;;;;15.55;4.95;;;4.60;92.30;;;;;;5050230;28;20136;-85
2021/12/08 01:15:07;;;;;;;12.23;3.65;;;4.60;92.30;;;;;;5035762;28;20084;-84
2021/12/08 01:17:33;;;;;;;16.45;5.75;;;4.60;92.30;;;;;;5051897;28;20186;-88
2021/12/08 01:20:00;;;;;;;16.75;6.25;;;4.60;92.40;;;;;;5033878;28;20168;-89
2021/12/08 01:22:26;;;;;;;16.35;4.80;;;4.60;92.40;;;;;;5050704;28;20889;-86
2021/12/08 01:24:51;;;;;;;13.98;5.38;;;4.70;92.40;;;;;;5015814;28;20080;-88
2021/12/08 01:27:17;;;;;;;9.20;4.38;;;4.70;92.50;;;;;;5034497;28;20063;-88
2021/12/08 01:29:43;;;;;;;19.67;5.97;;;4.70;92.50;;;;;;5037411;28;20171;-88
2021/12/08 01:32:09;;;;;;;14.05;5.95;;;4.70;92.50;;;;;;5019337;28;20452;-90
2021/12/08 01:34:35;;;;;;;15.23;7.32;;;4.70;92.60;;;;;;5017140;28;20070;-91
2021/12/08 01:37:01;;;;;;;17.98;6.88;;;4.70;92.60;;;;;;5055328;28;20072;-90
2021/12/08 01:39:27;;;;;;;16.27;7.38;;;4.70;92.60;;;;;;5050743;28;20076;-95
2021/12/08 01:41:53;;;;;;;17.65;5.88;;;4.70;92.60;;;;;;5020644;28;20076;-94
2021/12/08 01:47:04;;;;;;;15.70;6.90;;;4.80;92.70;;;;;;5069221;28;20088;-94
2021/12/08 01:49:30;;;;;;;15.90;7.18;;;4.70;92.70;;;;;;5060501;22;20116;-80
2021/12/08 01:51:57;;;;;;;18.85;7.30;;;4.80;92.70;;;;;;5046450;28;20090;-80
2021/12/08 01:54:22;;;;;;;17.52;7.95;;;4.80;92.70;;;;;;5043876;28;20074;-80
2021/12/08 01:56:51;;;;;;;17.98;7.47;;;4.80;92.80;;;;;;5065858;28;20078;-80
2021/12/08 01:59:17;;;;;;;24.20;8.18;;;4.80;92.80;;;;;;5032394;28;20070;-80
2021/12/08 02:01:45;;;;;;;18.63;6.95;;;4.80;92.80;;;;;;5048814;28;20069;-80
2021/12/08 02:04:11;;;;;;;17.42;8.57;;;4.80;92.80;;;;;;5023627;28;20160;-80
2021/12/08 02:06:40;;;;;;;22.88;8.55;;;4.80;92.90;;;;;;5050892;28;20094;-80
2021/12/08 02:09:11;;;;;;;23.42;9.00;;;4.80;92.90;;;;;;5044845;28;20518;-80
2021/12/08 02:11:39;;;;;;;23.48;8.02;;;4.80;93.00;;;;;;5051583;28;20580;-80
2021/12/08 02:14:05;;;;;;;23.90;9.25;;;4.90;93.00;;;;;;5046078;28;20552;-80
2021/12/08 02:16:31;;;;;;;16.50;7.15;;;4.90;93.00;;;;;;5036168;28;20073;-80
2021/12/08 02:18:58;;;;;;;14.57;7.22;;;4.90;93.00;;;;;;5049912;28;20072;-80
2021/12/08 02:21:30;;;;;;;18.38;8.45;;;4.90;93.00;;;;;;5035423;28;20079;-80
2021/12/08 02:23:57;;;;;;;;;;;4.90;93.10;;;;;;5044294;28;20078;-80
2021/12/08 02:26:23;;;;;;;15.68;7.55;;;4.90;93.10;;;;;;5044574;28;20000;-80
2021/12/08 02:28:50;;;;;;;16.92;8.68;;;4.90;93.00;;;;;;5065025;28;20116;-80
2021/12/08 02:31:21;;;;;;;17.52;9.25;;;4.90;93.00;;;;;;5034364;28;20107;-80
2021/12/08 02:47:44;;;;;;;22.50;9.60;;;5.10;93.20;;;;;;5056728;28;20079;-80
2021/12/08 02:50:11;;;;;;;21.30;10.45;;;5.10;93.20;;;;;;5068182;28;20085;-80
2021/12/08 02:52:37;;;;;;;22.67;10.52;;;5.10;93.20;;;;;;5054349;28;20547;-80
2021/12/08 02:55:07;;;;;;;27.00;9.93;;;5.10;93.20;;;;;;5051111;28;20584;-80
2021/12/08 02:57:33;;;;;;;21.23;11.88;;;5.10;93.20;;;;;;5050342;28;20397;-80
2021/12/08 02:59:58;;;;;;;21.15;10.05;;;5.10;93.20;;;;;;5051478;28;20108;-80
2021/12/08 03:02:24;;;;;;;24.15;11.40;;;5.20;93.20;;;;;;5035446;28;20090;-80
2021/12/08 03:04:50;;;;;;;24.25;12.63;;;5.20;93.20;;;;;;5046703;28;20073;-79
2021/12/08 03:07:16;;;;;;;27.55;12.82;;;5.20;93.20;;;;;;5026992;28;20068;-80
2021/12/08 03:09:42;;;;;;;28.55;13.30;;;5.20;93.20;;;;;;5053298;28;20190;-81
2021/12/08 03:12:08;;;;;;;16.08;9.40;;;5.20;93.20;;;;;;5072432;28;20575;-80
2021/12/08 03:14:34;;;;;;;20.05;7.85;;;5.20;93.20;;;;;;5053394;28;20086;-80
2021/12/08 03:17:04;;;;;;;23.15;11.80;;;5.20;93.20;;;;;;5052916;28;20099;-80
2021/12/08 03:19:31;;;;;;;34.45;11.85;;;5.20;93.30;;;;;;5047653;28;20048;-80
2021/12/08 03:21:57;;;;;;;27.92;13.52;;;5.20;93.20;;;;;;5036939;28;20064;-80
2021/12/08 03:24:32;;;;;;;33.97;15.38;;;5.30;93.30;;;;;;5048944;28;20145;-80
2021/12/08 03:30:19;;;;;;;27.92;12.27;;;5.30;93.30;;;;;;5048647;28;20067;-80
2021/12/08 03:32:36;;;;;;;24.77;11.57;;;5.30;93.30;;;;;;5056346;28;20526;-80
2021/12/08 03:35:04;;;;;;;30.15;12.75;;;5.30;93.30;;;;;;5047381;28;20063;-80
2021/12/08 03:37:36;;;;;;;32.75;14.50;;;5.30;93.30;;;;;;5035495;28;20476;-80
2021/12/08 03:40:11;;;;;;;34.83;14.23;;;5.30;93.30;;;;;;5067611;28;20180;-80
2021/12/08 03:42:38;;;;;;;28.85;14.18;;;5.30;93.30;;;;;;5067993;28;20066;-80
2021/12/08 03:45:09;;;;;;;31.58;14.05;;;5.40;93.40;;;;;;5037982;28;20075;-80
2021/12/08 03:47:38;;;;;;;36.35;15.13;;;5.40;93.40;;;;;;5050269;28;20145;-80
2021/12/08 03:50:07;;;;;;;34.05;15.07;;;5.40;93.40;;;;;;5066765;28;20098;-80
2021/12/08 03:52:33;;;;;;;43.47;15.88;;;5.40;93.40;;;;;;5072085;28;20067;-80
2021/12/08 03:54:59;;;;;;;31.13;14.35;;;5.40;93.40;;;;;;5051689;28;20359;-80
2021/12/08 03:57:25;;;;;;;42.70;17.23;;;5.50;93.50;;;;;;5050847;28;20064;-80
2021/12/08 03:59:50;;;;;;;35.70;17.13;;;5.50;93.50;;;;;;5038446;28;20518;-80
2021/12/08 04:02:16;;;;;;;33.40;14.75;;;5.50;93.50;;;;;;5037790;28;20478;-80
2021/12/08 04:04:46;;;;;;;40.17;16.58;;;5.50;93.50;;;;;;5071683;28;20078;-80
2021/12/08 04:07:14;;;;;;;36.75;15.07;;;5.50;93.50;;;;;;5032929;28;20073;-80
2021/12/08 04:09:42;;;;;;;36.05;16.08;;;5.60;93.50;;;;;;5046028;28;20098;-80
2021/12/08 04:12:10;;;;;;;34.75;15.10;;;5.60;93.50;;;;;;5078538;28;20064;-80
2021/12/08 04:14:40;;;;;;;38.50;15.60;;;5.70;93.60;;;;;;5077670;28;20192;-80
2021/12/08 04:17:09;;;;;;;43.88;16.67;;;5.70;93.60;;;;;;5071546;28;20483;-80
2021/12/08 04:19:35;;;;;;;39.88;15.45;;;5.70;93.60;;;;;;5070296;28;20077;-80
2021/12/08 04:22:21;;;;;;;40.70;16.08;;;5.70;93.60;;;;;;5055029;28;20521;-80
2021/12/08 04:24:52;;;;;;;35.80;13.50;;;5.70;93.60;;;;;;5053033;28;20076;-80
2021/12/08 04:27:26;;;;;;;35.15;14.80;;;5.80;93.60;;;;;;5071193;28;20145;-80
2021/12/08 04:29:52;;;;;;;37.33;15.38;;;5.80;93.60;;;;;;5072060;28;20464;-80
2021/12/08 04:32:22;;;;;;;30.63;12.65;;;5.80;93.60;;;;;;5044895;28;20418;-80
2021/12/08 04:34:51;;;;;;;26.80;11.85;;;5.80;93.70;;;;;;5043277;28;20066;-80
2021/12/08 04:37:25;;;;;;;26.90;11.88;;;5.90;93.60;;;;;;5069931;28;20062;-80
2021/12/08 04:42:51;;;;;;;26.05;11.18;;;5.90;93.70;;;;;;5069668;28;20147;-80
2021/12/08 04:45:27;;;;;;;30.67;13.32;;;5.90;93.70;;;;;;5051982;28;20087;-80
2021/12/08 05:07:03;;;;;;;28.40;13.18;;;6.00;93.60;;;;;;5069056;28;20078;-81
2021/12/08 05:09:35;;;;;;;32.50;14.25;;;6.00;93.60;;;;;;5038470;28;20102;-80
2021/12/08 05:12:08;;;;;;;34.03;13.05;;;6.00;93.60;;;;;;5069576;28;20067;-80
2021/12/08 05:14:52;;;;;;;34.08;13.68;;;6.00;93.60;;;;;;5070930;28;20052;-81
2021/12/08 05:17:30;;;;;;;31.20;13.20;;;6.00;93.60;;;;;;5066528;28;20066;-80
2021/12/08 05:20:01;;;;;;;40.85;13.45;;;5.90;93.60;;;;;;5074110;28;20111;-80
2021/12/08 05:22:34;;;;;;;35.30;13.38;;;5.90;93.60;;;;;;5049889;28;20070;-80
2021/12/08 05:25:05;;;;;;;35.03;13.30;;;5.80;93.60;;;;;;5060889;28;20159;-82
2021/12/08 05:27:39;;;;;;;38.85;14.52;;;5.80;93.60;;;;;;5041550;28;20068;-81
2021/12/08 05:30:07;;;;;;;35.83;13.30;;;5.80;93.60;;;;;;5068973;28;20095;-80
2021/12/08 05:32:34;;;;;;;34.75;13.73;;;5.80;93.60;;;;;;5065762;28;20133;-80
2021/12/08 05:35:00;;;;;;;37.38;12.88;;;5.70;93.60;;;;;;5048071;28;20445;-81
2021/12/08 05:37:27;;;;;;;38.75;13.00;;;5.70;93.60;;;;;;5067319;28;20064;-80
2021/12/08 05:39:54;;;;;;;38.30;13.00;;;5.70;93.60;;;;;;5045942;28;20190;-80
2021/12/08 05:42:29;;;;;;;38.45;13.52;;;5.70;93.60;;;;;;5061128;28;20158;-82
2021/12/08 05:44:55;;;;;;;34.85;12.35;;;5.60;93.70;;;;;;5070659;28;20106;-81
2021/12/08 05:47:27;;;;;;;35.60;11.98;;;5.60;93.60;;;;;;5064177;28;20079;-82
2021/12/08 05:49:54;;;;;;;42.28;12.00;;;5.60;93.70;;;;;;5066392;28;20688;-84
2021/12/08 05:52:20;;;;;;;31.00;12.43;;;5.60;93.70;;;;;;5071801;28;20073;-85
2021/12/08 05:54:47;;;;;;;38.72;12.27;;;5.60;93.70;;;;;;5034011;28;20163;-82
2021/12/08 05:57:19;;;;;;;32.38;11.98;;;5.60;93.70;;;;;;5040372;28;20070;-83
2021/12/08 05:59:48;;;;;;;41.40;13.25;;;5.50;93.70;;;;;;5060169;28;20106;-81
2021/12/08 06:02:24;;;;;;;37.97;13.30;;;5.50;93.70;;;;;;5048609;28;20089;-84
2021/12/08 06:04:51;;;;;;;44.40;13.52;;;5.50;93.80;;;;;;5046921;28;20094;-83
2021/12/08 06:07:21;;;;;;;40.40;12.63;;;5.50;93.70;;;;;;5060214;28;20091;-82
2021/12/08 06:09:51;;;;;;;34.90;11.68;;;5.50;93.70;;;;;;5039029;28;20566;-82
2021/12/08 06:12:17;;;;;;;33.55;12.75;;;5.40;94.10;;;;;;5069254;28;20068;-83
2021/12/08 06:14:44;;;;;;;37.00;11.90;;;5.40;93.80;;;;;;5070526;28;20062;-82
2021/12/08 06:17:14;;;;;;;31.40;11.55;;;5.40;93.80;;;;;;5063714;28;20076;-82
2021/12/08 06:19:43;;;;;;;45.67;12.93;;;5.40;93.80;;;;;;5070865;28;20084;-83
2021/12/08 06:22:11;;;;;;;33.35;12.63;;;5.40;93.80;;;;;;5066695;28;20538;-82
2021/12/08 06:24:38;;;;;;;32.47;11.63;;;5.40;93.90;;;;;;5073219;28;20471;-82
2021/12/08 06:27:04;;;;;;;32.22;11.40;;;5.30;93.80;;;;;;5076131;28;20061;-84
2021/12/08 06:29:30;;;;;;;32.22;11.60;;;5.30;93.80;;;;;;5067516;28;20074;-83
2021/12/08 06:31:58;;;;;;;32.40;12.25;;;5.30;93.90;;;;;;5068049;28;20546;-83
2021/12/08 06:34:25;;;;;;;32.78;10.63;;;5.30;93.90;;;;;;5046464;28;20133;-84
2021/12/08 06:37:01;;;;;;;33.55;10.48;;;5.30;93.90;;;;;;5071030;28;20065;-83
2021/12/08 06:39:35;;;;;;;28.90;10.68;;;5.30;93.90;;;;;;5069071;28;20120;-83
2021/12/08 06:42:09;;;;;;;37.45;10.35;;;5.30;93.90;;;;;;5055915;28;20062;-82
2021/12/08 06:44:40;;;;;;;26.00;10.32;;;5.30;93.90;;;;;;5069383;28;20065;-82
2021/12/08 06:47:11;;;;;;;34.10;9.32;;;5.30;93.90;;;;;;5053865;28;20065;-83
2021/12/08 06:49:38;;;;;;;32.25;10.32;;;5.30;93.90;;;;;;5054694;28;20196;-82
2021/12/08 06:52:11;;;;;;;27.48;8.63;;;5.30;94.00;;;;;;5055532;28;20550;-82
2021/12/08 06:55:06;;;;;;;33.28;9.05;;;5.30;94.00;;;;;;5055263;28;20177;-82
2021/12/08 06:57:45;;;;;;;26.27;7.75;;;5.30;94.00;;;;;;5052299;28;20164;-82
2021/12/08 07:00:23;;;;;;;27.42;8.52;;;5.30;94.00;;;;;;5061649;28;20067;-82
2021/12/08 07:03:04;;;;;;;19.63;7.10;;;5.30;94.00;;;;;;5075491;28;20150;-82
2021/12/08 07:05:52;;;;;;;22.17;7.35;;;5.30;94.00;;;;;;5058585;28;20070;-82
2021/12/08 07:08:19;;;;;;;26.33;8.02;;;5.30;94.00;;;;;;5063881;28;20084;-82
2021/12/08 07:10:47;;;;;;;26.13;7.13;;;5.30;94.00;;;;;;5053079;28;20087;-83
2021/12/08 07:13:18;;;;;;;20.95;6.80;;;5.30;94.00;;;;;;5053547;28;20086;-82
2021/12/08 07:15:52;;;;;;;25.30;8.07;;;5.30;94.00;;;;;;5057423;28;20070;-82
2021/12/08 07:18:24;;;;;;;25.77;7.15;;;5.30;94.00;;;;;;5073414;28;20083;-82
2021/12/08 07:20:55;;;;;;;19.38;6.03;;;5.30;94.00;;;;;;5057663;28;20063;-82
2021/12/08 07:23:26;;;;;;;13.85;5.13;;;5.30;94.00;;;;;;5061349;28;20511;-82
2021/12/08 07:25:57;;;;;;;22.02;6.40;;;5.30;94.00;;;;;;5054073;28;20134;-82
2021/12/08 07:28:26;;;;;;;28.20;7.50;;;5.30;94.00;;;;;;5065410;28;20486;-82
2021/12/08 07:31:05;;;;;;;23.02;5.20;;;5.30;94.00;;;;;;5040201;28;20084;-81
2021/12/08 07:33:31;;;;;;;15.93;5.38;;;5.30;94.00;;;;;;5059154;28;20073;-82
2021/12/08 07:36:00;;;;;;;16.48;5.15;;;5.30;93.90;;;;;;5053855;28;20592;-81
2021/12/08 07:38:31;;;;;;;14.98;4.90;;;5.30;93.90;;;;;;5074648;28;20066;-82
2021/12/08 07:41:18;;;;;;;17.00;4.57;;;5.40;94.00;;;;;;5048181;28;20110;-82
2021/12/08 07:43:50;;;;;;;14.43;4.65;;;5.40;93.90;;;;;;5058602;28;20457;-82
2021/12/08 07:46:23;;;;;;;13.98;4.38;;;5.30;93.80;;;;;;5067896;28;20129;-82
2021/12/08 07:48:59;;;;;;;13.63;4.35;;;5.30;93.80;;;;;;5065690;28;20601;-82
2021/12/08 07:51:32;;;;;;;20.27;4.57;;;5.30;93.80;;;;;;5071818;28;20553;-82
2021/12/08 07:53:59;;;;;;;15.27;4.80;;;5.30;93.80;;;;;;5055552;28;20582;-82
2021/12/08 07:56:26;;;;;;;11.73;3.90;;;5.30;93.80;;;;;;5038273;28;20068;-82
2021/12/08 07:58:56;;;;;;;16.23;3.92;;;5.30;93.80;;;;;;5074148;28;20067;-82
2021/12/08 08:01:36;;;;;;;16.77;4.40;;;5.30;93.70;;;;;;5069620;28;20070;-83
2021/12/08 08:04:05;;;;;;;12.85;3.80;;;5.30;93.70;;;;;;5069545;28;20423;-82
2021/12/08 08:06:35;;;;;;;17.40;4.30;;;5.30;93.70;;;;;;5049891;28;20153;-82
2021/12/08 08:09:03;;;;;;;15.57;4.38;;;5.30;93.70;;;;;;5072470;28;20168;-82
2021/12/08 08:11:41;;;;;;;16.90;4.57;;;5.30;94.10;;;;;;5030089;28;20128;-83
2021/12/08 08:14:07;;;;;;;16.85;3.80;;;5.40;93.70;;;;;;5050527;28;20065;-83
2021/12/08 08:16:35;;;;;;;15.00;4.40;;;5.40;93.70;;;;;;5053534;28;20147;-83
2021/12/08 08:19:11;;;;;;;10.80;3.58;;;5.40;93.70;;;;;;5051093;28;20067;-81
2021/12/08 08:21:40;;;;;;;15.07;3.25;;;5.40;93.70;;;;;;5057054;28;20060;-80
2021/12/08 08:24:08;;;;;;;15.75;3.38;;;5.40;93.70;;;;;;5049869;28;20430;-81
2021/12/08 08:26:35;;;;;;;13.75;3.00;;;5.40;93.60;;;;;;5025423;28;20132;-81
2021/12/08 08:29:03;;;;;;;11.10;3.38;;;5.40;93.60;;;;;;5020798;28;20073;-81
2021/12/08 08:31:59;;;;;;;13.70;3.38;;;5.50;93.60;;;;;;5054129;28;20553;-81
2021/12/08 08:34:27;;;;;;;11.60;3.40;;;5.50;93.60;;;;;;5060937;28;20114;-81
2021/12/08 08:36:54;;;;;;;12.25;2.88;;;5.50;93.50;;;;;;5049496;28;20076;-81
2021/12/08 08:39:29;;;;;;;12.85;3.28;;;5.50;93.50;;;;;;5040590;28;20076;-81
2021/12/08 08:42:01;;;;;;;15.50;3.65;;;5.50;93.50;;;;;;5053458;28;20551;-81
2021/12/08 08:44:40;;;;;;;19.25;3.60;;;5.50;93.50;;;;;;5050720;28;20068;-81
2021/12/08 08:47:11;;;;;;;13.95;2.60;;;5.60;93.50;;;;;;5051004;28;20525;-81
2021/12/08 08:49:39;;;;;;;11.00;2.78;;;5.60;93.40;;;;;;5044962;28;20107;-81
2021/12/08 08:52:17;;;;;;;15.80;2.97;;;5.60;93.40;;;;;;5048372;28;20478;-81
2021/12/08 08:54:46;;;;;;;15.25;3.60;;;5.60;93.40;;;;;;5068996;28;20141;-81
2021/12/08 08:57:20;;;;;;;17.73;2.78;;;5.60;93.30;;;;;;5050927;28;20097;-81
2021/12/08 08:59:50;;;;;;;13.00;2.75;;;5.60;93.30;;;;;;5055057;28;20060;-81
2021/12/08 09:02:25;;;;;;;13.65;2.88;;;5.60;93.20;;;;;;5046218;28;20081;-81
2021/12/08 09:04:58;;;;;;;15.63;2.58;;;5.70;93.20;;;;;;5045378;28;20065;-81
2021/12/08 09:07:34;;;;;;;14.50;2.60;;;5.70;93.20;;;;;;5068521;28;20071;-81
2021/12/08 09:10:05;;;;;;;18.20;3.05;;;5.60;93.10;;;;;;5047984;28;20078;-81
2021/12/08 09:12:37;;;;;;;21.65;4.13;;;5.60;93.10;;;;;;5046792;28;20171;-81
2021/12/08 09:15:20;;;;;;;16.90;4.28;;;5.60;93.10;;;;;;5049397;28;20148;-80
2021/12/08 09:17:51;;;;;;;15.02;2.92;;;5.60;93.10;;;;;;5038961;28;20094;-81
2021/12/08 09:20:29;;;;;;;11.13;2.40;;;5.70;93.10;;;;;;5048504;28;20108;-80
2021/12/08 09:23:08;;;;;;;15.18;3.47;;;5.70;93.00;;;;;;5068937;28;20093;-81
2021/12/08 09:25:46;;;;;;;14.85;2.75;;;5.70;93.00;;;;;;5040485;28;20081;-81
2021/12/08 09:28:24;;;;;;;18.42;3.20;;;5.70;93.00;;;;;;5047104;28;20072;-81
2021/12/08 09:31:07;;;;;;;15.02;3.00;;;5.70;93.00;;;;;;5056341;28;20086;-81
2021/12/08 09:33:42;;;;;;;15.82;3.45;;;5.70;93.00;;;;;;5067004;28;20063;-81
2021/12/08 09:36:15;;;;;;;14.98;2.80;;;5.80;93.10;;;;;;5064312;28;20158;-81
2021/12/08 09:38:50;;;;;;;12.98;3.60;;;5.90;93.10;;;;;;5055003;28;20077;-81
2021/12/08 09:41:40;;;;;;;12.85;2.25;;;6.00;93.10;;;;;;5043728;28;20066;-81
2021/12/08 09:44:12;;;;;;;20.35;3.05;;;6.10;93.00;;;;;;5057520;28;20074;-80
2021/12/08 09:46:42;;;;;;;12.18;2.72;;;6.10;92.90;;;;;;5067642;28;20069;-81
2021/12/08 09:49:09;;;;;;;13.73;2.42;;;6.20;92.80;;;;;;5041329;28;20092;-81
2021/12/08 09:51:36;;;;;;;14.63;2.60;;;6.20;92.70;;;;;;5021325;28;20170;-81
2021/12/08 09:54:03;;;;;;;18.15;3.08;;;6.20;93.00;;;;;;5033917;28;20075;-81
2021/12/08 09:56:29;;;;;;;8.32;2.63;;;6.30;92.70;;;;;;5055089;28;21260;-81
2021/12/08 09:58:56;;;;;;;13.13;3.13;;;6.30;92.60;;;;;;5066526;28;20062;-81
2021/12/08 10:01:23;;;;;;;11.60;3.97;;;6.30;92.60;;;;;;5026259;28;20071;-81
2021/12/08 10:03:51;;;;;;;11.23;2.67;;;6.50;92.60;;;;;;5055170;28;20099;-81
2021/12/08 10:06:18;;;;;;;13.93;2.95;;;6.50;92.60;;;;;;5043340;28;20060;-81
2021/12/08 10:08:46;;;;;;;17.23;3.03;;;6.60;92.40;;;;;;5049899;28;20055;-81
2021/12/08 10:11:12;;;;;;;22.90;3.55;;;6.60;92.30;;;;;;5067002;28;20159;-81
2021/12/08 10:13:38;;;;;;;15.25;3.05;;;6.70;92.20;;;;;;5042540;28;20074;-81
2021/12/08 10:16:06;;;;;;;13.05;2.53;;;6.70;92.10;;;;;;5070197;28;20131;-81
2021/12/08 10:18:32;;;;;;;7.85;2.38;;;6.80;91.90;;;;;;5071757;28;20049;-81
2021/12/08 10:20:57;;;;;;;11.13;2.75;;;6.80;91.90;;;;;;5054850;28;20110;-82
2021/12/08 10:23:30;;;;;;;12.35;2.72;;;6.90;91.90;;;;;;5051193;28;20127;-81
2021/12/08 10:26:13;;;;;;;20.20;2.83;;;6.90;91.80;;;;;;5048624;28;20406;-81
2021/12/08 10:28:52;;;;;;;12.73;2.35;;;7.00;91.70;;;;;;5066827;28;20087;-81
2021/12/08 10:31:31;;;;;;;15.18;3.15;;;7.00;91.60;;;;;;5052446;28;20558;-81
2021/12/08 10:36:49;;;;;;;9.15;2.25;;;7.00;91.40;;;;;;5068725;28;20067;-81
2021/12/08 10:39:46;;;;;;;11.90;2.78;;;7.00;91.30;;;;;;5048063;28;20060;-81
2021/12/08 10:42:27;;;;;;;11.35;2.42;;;7.10;91.30;;;;;;5047757;28;20048;-81
2021/12/08 10:45:02;;;;;;;16.40;3.07;;;7.10;91.20;;;;;;5046919;28;20697;-81
2021/12/08 10:47:32;;;;;;;8.38;2.92;;;7.10;91.20;;;;;;5053146;28;20334;-81
2021/12/08 10:55:38;;;;;;;15.13;2.78;;;7.10;90.90;;;;;;5069002;28;20163;-81
2021/12/08 10:58:04;;;;;;;10.55;2.33;;;7.10;90.90;;;;;;5035223;28;20058;-81
2021/12/08 11:00:37;;;;;;;11.27;2.90;;;7.20;90.90;;;;;;5051424;28;20561;-81
2021/12/08 11:03:09;;;;;;;14.65;2.97;;;7.20;90.90;;;;;;5050332;28;20157;-81
2021/12/08 11:05:40;;;;;;;18.47;2.93;;;7.20;90.90;;;;;;5049019;28;20059;-80
2021/12/08 11:08:14;;;;;;;9.70;2.65;;;7.30;90.90;;;;;;5056314;28;20130;-81
2021/12/08 11:10:58;;;;;;;14.65;2.65;;;7.40;90.90;;;;;;5067204;28;20533;-81
2021/12/08 11:13:28;;;;;;;13.35;2.08;;;7.50;90.90;;;;;;5046600;28;20215;-82
2021/12/08 11:16:03;;;;;;;16.85;2.63;;;7.50;90.80;;;;;;5051738;28;20067;-82
2021/12/08 11:18:30;;;;;;;10.73;2.30;;;7.60;90.70;;;;;;5068917;28;20471;-81
2021/12/08 11:21:16;;;;;;;9.05;2.08;;;7.50;90.60;;;;;;5037080;28;20121;-82
2021/12/08 11:23:47;;;;;;;14.98;3.35;;;7.60;90.40;;;;;;5051042;28;20144;-81
2021/12/08 11:26:33;;;;;;;15.43;2.88;;;7.60;90.40;;;;;;5071734;28;20060;-82
2021/12/08 11:29:12;;;;;;;16.77;2.30;;;7.60;90.30;;;;;;5074044;28;20050;-82
2021/12/08 11:31:42;;;;;;;13.27;2.83;;;7.60;90.20;;;;;;5063283;28;20361;-82
2021/12/08 11:34:25;;;;;;;10.07;2.28;;;7.50;90.10;;;;;;5049396;28;20046;-82
2021/12/08 11:36:55;;;;;;;12.70;1.80;;;7.50;90.20;;;;;;5063770;28;20487;-82
2021/12/08 11:39:31;;;;;;;14.80;2.92;;;7.50;90.10;;;;;;5054654;28;20040;-82
2021/12/08 11:42:06;;;;;;;11.57;2.75;;;7.40;90.00;;;;;;5057372;28;20792;-82
2021/12/08 11:44:36;;;;;;;6.00;2.05;;;7.40;90.10;;;;;;5051062;28;20062;-82
2021/12/08 11:47:11;;;;;;;14.15;3.03;;;7.40;90.10;;;;;;5069353;28;20071;-82
2021/12/08 11:49:46;;;;;;;9.82;2.72;;;7.30;90.00;;;;;;5041552;28;20085;-81
2021/12/08 11:52:16;;;;;;;10.00;2.13;;;7.30;90.00;;;;;;5050751;28;20061;-82
2021/12/08 11:54:46;;;;;;;9.73;2.53;;;7.30;90.10;;;;;;5046480;28;20092;-82
2021/12/08 11:57:25;;;;;;;12.77;3.03;;;7.30;90.00;;;;;;5047915;28;20042;-82
2021/12/08 11:59:57;;;;;;;6.72;2.15;;;7.20;90.00;;;;;;5070822;28;20092;-82
2021/12/08 12:02:27;;;;;;;15.95;2.22;;;7.20;89.90;;;;;;5069519;28;20503;-83
2021/12/08 12:04:53;;;;;;;12.07;2.33;;;7.20;89.80;;;;;;5052081;28;20055;-82
2021/12/08 12:07:19;;;;;;;5.07;2.17;;;7.20;90.10;;;;;;5035358;28;20148;-82
2021/12/08 12:09:46;;;;;;;9.45;2.20;;;7.20;89.80;;;;;;5070060;28;20052;-82
2021/12/08 12:12:12;;;;;;;8.05;1.95;;;7.20;89.90;;;;;;5047567;28;20491;-82
2021/12/08 12:14:38;;;;;;;11.45;2.55;;;7.20;89.90;;;;;;5056681;28;20519;-82
2021/12/08 12:17:04;;;;;;;21.83;2.80;;;7.20;89.90;;;;;;5035601;28;20092;-82
2021/12/08 12:19:42;;;;;;;12.50;2.63;;;7.20;90.30;;;;;;5052821;28;20065;-82
2021/12/08 12:22:31;;;;;;;13.05;3.00;;;7.20;89.80;;;;;;5067050;28;20129;-82
2021/12/08 12:25:02;;;;;;;11.15;2.20;;;7.20;89.70;;;;;;5048995;28;20057;-82
2021/12/08 12:27:57;;;;;;;11.85;2.97;;;7.20;89.90;;;;;;5050154;28;20062;-82
2021/12/08 12:30:44;;;;;;;7.57;2.30;;;7.20;90.00;;;;;;5044151;28;20105;-82
2021/12/08 12:33:18;;;;;;;8.25;2.30;;;7.20;89.90;;;;;;5057710;28;20164;-82
2021/12/08 12:35:52;;;;;;;9.15;2.17;;;7.20;90.00;;;;;;5070585;28;20509;-82
2021/12/08 12:38:35;;;;;;;12.55;2.33;;;7.20;89.80;;;;;;5062054;28;20421;-83
2021/12/08 12:41:02;;;;;;;12.75;2.63;;;7.20;89.90;;;;;;5049701;28;20060;-82
2021/12/08 12:43:30;;;;;;;12.55;3.15;;;7.30;89.90;;;;;;5049979;28;20071;-82
2021/12/08 12:46:14;;;;;;;13.55;3.30;;;7.30;89.80;;;;;;5049688;28;20101;-83
2021/12/08 12:48:40;;;;;;;10.65;3.63;;;7.30;89.90;;;;;;5069060;28;20091;-82
2021/12/08 12:51:11;;;;;;;18.85;3.28;;;7.30;89.80;;;;;;5031101;28;20075;-82
2021/12/08 12:53:41;;;;;;;14.65;4.32;;;7.30;89.70;;;;;;5049037;28;20048;-81
2021/12/08 12:56:37;;;;;;;17.27;3.85;;;7.30;89.70;;;;;;5049066;28;20073;-82
2021/12/08 12:59:10;;;;;;;9.65;3.92;;;7.30;89.70;;;;;;5063115;28;20052;-82
2021/12/08 13:01:43;;;;;;;12.13;4.22;;;7.40;89.70;;;;;;5069495;28;20519;-81
2021/12/08 13:04:21;;;;;;;14.25;3.90;;;7.30;89.60;;;;;;5036494;28;20527;-80
2021/12/08 13:06:48;;;;;;;13.63;4.13;;;7.40;89.70;;;;;;5051653;28;20117;-81
2021/12/08 13:09:34;;;;;;;15.63;4.47;;;7.40;89.60;;;;;;5046558;28;20196;-80
2021/12/08 13:12:24;;;;;;;11.38;3.78;;;7.40;89.50;;;;;;5051264;28;20091;-80
2021/12/08 13:15:07;;;;;;;15.43;4.50;;;7.30;89.50;;;;;;5066085;28;20446;-80
2021/12/08 13:17:34;;;;;;;9.50;4.00;;;7.30;89.50;;;;;;5049776;28;20138;-80
2021/12/08 13:20:09;;;;;;;14.63;4.63;;;7.40;89.60;;;;;;5051959;28;20540;-80
2021/12/08 13:22:41;;;;;;;13.13;5.10;;;7.30;89.40;;;;;;5067214;28;20050;-83
2021/12/08 13:26:00;;;;;;;12.52;4.00;;;7.40;89.50;;;;;;5043813;28;20055;-82
2021/12/08 13:28:54;;;;;;;11.82;4.53;;;7.40;89.50;;;;;;5066083;28;20062;-82
2021/12/08 13:31:38;;;;;;;13.95;4.13;;;7.40;89.30;;;;;;5061864;28;20070;-82
2021/12/08 13:34:10;;;;;;;13.13;5.78;;;7.40;89.40;;;;;;5064384;28;20074;-82
2021/12/08 13:36:43;;;;;;;13.10;3.60;;;7.40;89.30;;;;;;5035423;28;20522;-82
2021/12/08 13:39:09;;;;;;;18.20;4.32;;;7.40;89.30;;;;;;5066933;28;20497;-82
2021/12/08 13:41:37;;;;;;;15.18;3.95;;;7.40;89.20;;;;;;5047099;28;20119;-82
2021/12/08 13:44:21;;;;;;;14.73;4.07;;;7.40;89.20;;;;;;5031831;28;20104;-82
2021/12/08 13:46:51;;;;;;;16.25;3.80;;;7.40;88.90;;;;;;5049883;28;20360;-82
2021/12/08 13:49:18;;;;;;;9.57;3.35;;;7.40;88.80;;;;;;5047165;28;20101;-82
2021/12/08 13:52:08;;;;;;;19.25;4.25;;;7.40;88.80;;;;;;5052465;28;20069;-82
2021/12/08 13:54:38;;;;;;;14.82;4.20;;;7.30;88.70;;;;;;5046928;28;20102;-82
2021/12/08 13:57:31;;;;;;;13.50;4.90;;;7.30;88.70;;;;;;5043800;28;20107;-81
2021/12/08 14:00:04;;;;;;;12.15;4.03;;;7.30;88.90;;;;;;5062682;28;20055;-82